Time;durP1;ratioP1;P1;durP2;ratioP2;P2;SDS_P1;SDS_P2;PMS_P1;PMS_P2;Temp;Humidity;BMP_temperature;BMP_pressure;BME280_temperature;BME280_humidity;BME280_pressure;Samples;Min_cycle;Max_cycle;Signal;HPM_P1;HPM_P2
2023/01/21 00:01:12;;;;;;;1.37;1.27;;;2.60;99.90;;;;;;4930075;29;20460;-71
2023/01/21 00:03:40;;;;;;;0.90;0.40;;;2.60;99.90;;;;;;4935070;29;20448;-71
2023/01/21 00:06:08;;;;;;;4.67;2.10;;;2.60;99.90;;;;;;4936025;29;20966;-70
2023/01/21 00:08:36;;;;;;;0.67;0.60;;;2.50;99.90;;;;;;4935531;29;20478;-71
2023/01/21 00:11:07;;;;;;;0.90;0.60;;;2.50;99.90;;;;;;4935905;29;20455;-71
2023/01/21 00:13:35;;;;;;;0.73;0.50;;;2.50;99.90;;;;;;4935738;29;20939;-70
2023/01/21 00:16:04;;;;;;;7.40;3.50;;;2.50;99.90;;;;;;4936203;29;20499;-72
2023/01/21 00:18:33;;;;;;;0.50;0.10;;;2.50;99.90;;;;;;4937483;29;20994;-71
2023/01/21 00:21:01;;;;;;;3.30;3.10;;;2.50;99.90;;;;;;4937836;29;20943;-71
2023/01/21 00:23:29;;;;;;;0.67;0.40;;;2.40;99.90;;;;;;4933307;29;20472;-70
2023/01/21 00:25:57;;;;;;;2.80;1.33;;;2.40;99.90;;;;;;4929575;29;20447;-71
2023/01/21 00:28:29;;;;;;;1.10;1.10;;;2.40;99.90;;;;;;4934955;29;20550;-71
2023/01/21 00:30:58;;;;;;;0.50;0.30;;;2.40;99.90;;;;;;4933305;29;20515;-71
2023/01/21 00:33:27;;;;;;;1.70;1.53;;;2.40;99.90;;;;;;4934696;29;20950;-71
2023/01/21 00:35:59;;;;;;;0.50;0.20;;;2.40;99.90;;;;;;4935288;29;20451;-73
2023/01/21 00:38:27;;;;;;;6.00;5.70;;;2.40;99.90;;;;;;4935503;29;20448;-71
2023/01/21 00:41:00;;;;;;;0.50;0.10;;;2.40;99.90;;;;;;4934651;29;20456;-71
2023/01/21 00:43:30;;;;;;;5.87;2.97;;;2.30;99.90;;;;;;4935139;29;20792;-72
2023/01/21 00:45:57;;;;;;;0.67;0.67;;;2.30;99.90;;;;;;4935057;29;20503;-71
2023/01/21 00:48:27;;;;;;;2.50;0.57;;;2.30;99.90;;;;;;4935176;29;20558;-71
2023/01/21 00:50:57;;;;;;;3.13;2.60;;;2.30;99.90;;;;;;4935274;29;20478;-70
2023/01/21 00:53:26;;;;;;;0.83;0.70;;;2.20;99.90;;;;;;4951513;29;20459;-70
2023/01/21 00:55:54;;;;;;;4.63;4.23;;;2.20;99.90;;;;;;4948279;29;20454;-71
2023/01/21 00:58:21;;;;;;;0.50;0.10;;;2.20;99.90;;;;;;4949204;29;20468;-70
2023/01/21 05:01:58;;;;;;;1.40;1.13;;;-0.50;99.90;;;;;;5317020;23;21050;-71
2023/01/21 05:04:25;;;;;;;3.40;1.27;;;-0.60;99.90;;;;;;4910258;29;20944;-73
2023/01/21 05:06:54;;;;;;;4.83;2.53;;;-0.80;99.90;;;;;;4910605;29;20443;-73
2023/01/21 05:09:22;;;;;;;1.70;1.60;;;-0.80;99.90;;;;;;4913637;29;20445;-72
2023/01/21 05:11:50;;;;;;;1.57;1.43;;;-0.90;99.90;;;;;;4900306;29;20463;-72
2023/01/21 05:14:19;;;;;;;1.70;1.37;;;-0.90;99.90;;;;;;4895543;29;20488;-72
2023/01/21 05:16:46;;;;;;;3.90;3.70;;;-0.90;99.90;;;;;;4894183;29;20473;-72
2023/01/21 05:19:16;;;;;;;5.57;5.07;;;;;;;;;;4891515;29;20441;-72
2023/01/21 05:21:44;;;;;;;4.70;2.10;;;-0.90;99.90;;;;;;4890831;29;20470;-70
2023/01/21 05:24:12;;;;;;;2.07;1.00;;;-0.90;99.90;;;;;;4892393;29;20448;-73
2023/01/21 05:26:40;;;;;;;1.90;1.80;;;-0.90;99.90;;;;;;4892247;29;20457;-71
2023/01/21 05:29:08;;;;;;;7.50;6.97;;;-0.90;99.90;;;;;;4887206;29;20490;-71
2023/01/21 05:31:35;;;;;;;12.17;3.80;;;-0.80;99.90;;;;;;4886664;29;20473;-72
2023/01/21 05:34:04;;;;;;;0.70;0.40;;;-0.80;99.90;;;;;;4887982;29;20446;-71
2023/01/21 05:36:33;;;;;;;3.20;2.87;;;-0.80;99.90;;;;;;4888484;29;20815;-70
2023/01/21 05:39:01;;;;;;;1.63;0.90;;;-0.90;99.90;;;;;;4935277;23;20506;-68
2023/01/21 05:41:29;;;;;;;0.50;0.20;;;-0.90;99.90;;;;;;4940679;28;20440;-70
2023/01/21 05:43:57;;;;;;;0.50;0.10;;;-0.90;99.90;;;;;;4936968;28;20452;-73
2023/01/21 05:46:25;;;;;;;0.50;0.10;;;-0.90;99.90;;;;;;4934148;29;20491;-69
2023/01/21 05:48:53;;;;;;;0.60;0.40;;;-1.00;99.90;;;;;;4935122;29;20483;-69
2023/01/21 05:51:21;;;;;;;0.60;0.60;;;-0.90;99.90;;;;;;4937786;29;20452;-69
2023/01/21 05:53:50;;;;;;;1.03;1.03;;;-0.90;99.90;;;;;;4937589;29;20483;-70
2023/01/21 05:56:18;;;;;;;1.30;0.97;;;-1.00;99.90;;;;;;4937324;29;20447;-70
2023/01/21 05:58:45;;;;;;;2.03;1.93;;;-1.00;99.90;;;;;;4937301;29;20967;-71
2023/01/21 06:01:13;;;;;;;2.40;2.13;;;-1.00;99.90;;;;;;4937565;29;20448;-69
2023/01/21 06:03:41;;;;;;;9.03;1.80;;;-1.00;99.90;;;;;;4937871;29;20444;-69
2023/01/21 06:06:09;;;;;;;2.60;2.40;;;-1.00;99.90;;;;;;4937676;29;20471;-70
2023/01/21 06:08:37;;;;;;;3.37;3.10;;;-1.00;99.90;;;;;;4937156;29;20487;-70
2023/01/21 06:11:06;;;;;;;8.20;3.57;;;-1.00;99.90;;;;;;4936990;29;20963;-69
2023/01/21 06:13:34;;;;;;;4.67;4.30;;;-1.10;99.90;;;;;;4938191;29;20440;-69
2023/01/21 06:16:02;;;;;;;1.07;0.97;;;-1.10;99.90;;;;;;4937928;29;20440;-69
2023/01/21 06:18:29;;;;;;;2.83;2.73;;;-1.10;99.90;;;;;;4937622;29;20478;-70
2023/01/21 06:20:59;;;;;;;0.80;0.67;;;;;;;;;;4938065;29;20470;-70
2023/01/21 06:23:27;;;;;;;1.53;0.70;;;-1.10;99.90;;;;;;4936869;29;21017;-70
2023/01/21 06:26:02;;;;;;;0.50;0.30;;;-1.10;99.90;;;;;;4937441;29;20444;-70
2023/01/21 06:28:31;;;;;;;3.27;1.80;;;-1.00;99.90;;;;;;4935912;29;20517;-70
2023/01/21 06:30:59;;;;;;;2.60;2.40;;;-1.10;99.90;;;;;;4936971;29;20440;-70
2023/01/21 06:33:27;;;;;;;0.90;0.63;;;-1.10;99.90;;;;;;4942328;29;20526;-70
2023/01/21 06:35:55;;;;;;;0.60;0.47;;;-1.10;99.90;;;;;;4946204;29;20476;-70
2023/01/21 06:38:23;;;;;;;1.37;1.17;;;;;;;;;;4947867;28;20545;-72
2023/01/21 06:40:51;;;;;;;1.37;0.87;;;-1.10;99.90;;;;;;4949425;29;20440;-72
2023/01/21 06:43:18;;;;;;;3.90;3.70;;;-1.00;99.90;;;;;;4947828;29;20451;-70
2023/01/21 06:45:47;;;;;;;3.20;1.73;;;-1.00;99.90;;;;;;4938442;29;20451;-70
2023/01/21 06:48:15;;;;;;;1.23;0.77;;;-1.00;99.90;;;;;;4937078;29;20493;-70
2023/01/21 06:50:43;;;;;;;6.53;1.70;;;-1.10;99.90;;;;;;4937219;29;20911;-70
2023/01/21 06:53:11;;;;;;;0.60;0.60;;;-1.10;99.90;;;;;;4937833;29;20448;-72
2023/01/21 06:55:40;;;;;;;0.70;0.60;;;-1.10;99.90;;;;;;4944453;29;21040;-70
2023/01/21 06:58:08;;;;;;;4.80;3.80;;;-1.10;99.90;;;;;;4944688;28;20464;-71
2023/01/21 07:00:35;;;;;;;0.70;0.70;;;-1.20;99.90;;;;;;4939054;29;20890;-70
2023/01/21 07:03:08;;;;;;;3.17;2.43;;;-1.20;99.90;;;;;;4936898;29;20448;-72
2023/01/21 07:05:36;;;;;;;4.40;2.40;;;-1.20;99.90;;;;;;4938858;29;20509;-70
2023/01/21 07:08:04;;;;;;;0.70;0.70;;;-1.20;99.90;;;;;;4936309;29;20471;-70
2023/01/21 07:10:32;;;;;;;0.87;0.57;;;-1.10;99.90;;;;;;4936551;29;20437;-70
2023/01/21 07:13:00;;;;;;;3.27;3.07;;;-1.10;99.90;;;;;;4936865;29;20464;-70
2023/01/21 07:15:29;;;;;;;1.80;1.70;;;-1.10;99.90;;;;;;4940690;29;20535;-72
2023/01/21 07:17:58;;;;;;;2.90;1.57;;;-1.20;99.90;;;;;;4943350;28;20469;-70
2023/01/21 07:20:27;;;;;;;2.20;2.10;;;-1.20;99.90;;;;;;4939340;29;20460;-71
2023/01/21 07:22:55;;;;;;;2.87;2.63;;;-1.20;99.90;;;;;;4938606;29;20790;-69
2023/01/21 07:25:23;;;;;;;10.83;2.57;;;-1.20;99.90;;;;;;4938616;29;20500;-70
2023/01/21 07:27:51;;;;;;;17.60;5.53;;;-1.20;99.90;;;;;;4933603;29;20567;-70
2023/01/21 07:30:20;;;;;;;3.03;2.07;;;-1.20;99.90;;;;;;4936726;29;20567;-71
2023/01/21 07:32:48;;;;;;;3.87;3.30;;;-1.20;99.90;;;;;;4937242;29;20452;-71
2023/01/21 07:35:16;;;;;;;3.23;1.23;;;-1.10;99.90;;;;;;4937225;29;20444;-71
2023/01/21 07:37:45;;;;;;;3.70;1.90;;;-1.10;99.90;;;;;;4938653;29;20551;-72
2023/01/21 07:40:13;;;;;;;3.90;2.37;;;-1.00;99.90;;;;;;4947215;28;20866;-71
2023/01/21 07:42:42;;;;;;;1.60;1.33;;;-1.00;99.90;;;;;;4955496;28;20450;-70
2023/01/21 07:45:11;;;;;;;0.50;0.10;;;-1.00;99.90;;;;;;4955748;28;20442;-71
2023/01/21 07:47:39;;;;;;;1.50;1.40;;;-0.90;99.90;;;;;;4950218;28;21009;-72
2023/01/21 07:50:08;;;;;;;4.77;4.30;;;-0.90;99.90;;;;;;4935449;29;20484;-71
2023/01/21 07:52:36;;;;;;;1.50;1.40;;;-0.90;99.90;;;;;;4936378;29;20456;-71
2023/01/21 07:55:06;;;;;;;5.93;2.30;;;-0.80;99.90;;;;;;4936582;29;20452;-70
2023/01/21 07:57:35;;;;;;;2.10;1.90;;;-0.80;99.90;;;;;;4935710;29;20448;-71
2023/01/21 08:00:03;;;;;;;1.20;0.83;;;-0.80;99.90;;;;;;4935799;29;20546;-73
2023/01/21 08:02:31;;;;;;;1.10;0.50;;;-0.80;99.90;;;;;;4935835;29;20452;-72
2023/01/21 08:04:59;;;;;;;0.50;0.30;;;-0.70;99.90;;;;;;4937916;29;20815;-72
2023/01/21 08:07:26;;;;;;;2.40;2.20;;;-0.70;99.90;;;;;;4937734;29;20983;-72
2023/01/21 08:09:54;;;;;;;2.10;2.00;;;-0.60;99.90;;;;;;4935162;29;20808;-72
2023/01/21 08:12:23;;;;;;;4.97;4.47;;;-0.60;99.90;;;;;;4940337;29;20436;-70
2023/01/21 08:14:54;;;;;;;9.53;3.03;;;-0.70;99.90;;;;;;4935591;29;20963;-71
2023/01/21 08:17:21;;;;;;;0.50;0.20;;;-0.60;99.90;;;;;;4939685;29;20955;-70
2023/01/21 08:19:49;;;;;;;1.57;0.70;;;-0.70;99.90;;;;;;4941781;29;20941;-73
2023/01/21 08:22:17;;;;;;;3.00;0.67;;;-0.60;99.90;;;;;;4934996;29;20456;-72
2023/01/21 08:24:45;;;;;;;4.27;3.97;;;-0.60;99.90;;;;;;4934432;29;20833;-72
2023/01/21 08:27:13;;;;;;;0.63;0.40;;;-0.50;99.90;;;;;;4943953;29;20455;-71
2023/01/21 08:29:42;;;;;;;0.50;0.10;;;-0.50;99.90;;;;;;4932889;28;20499;-71
2023/01/21 08:32:10;;;;;;;6.60;2.47;;;-0.50;99.90;;;;;;4934361;29;20475;-72
2023/01/21 08:34:37;;;;;;;1.33;0.83;;;-0.40;99.90;;;;;;4928849;28;20469;-70
2023/01/21 08:37:05;;;;;;;3.57;2.53;;;-0.40;99.90;;;;;;4915290;29;20449;-69
2023/01/21 08:39:33;;;;;;;1.17;1.17;;;-0.30;99.90;;;;;;4912759;29;20483;-70
2023/01/21 08:42:01;;;;;;;5.83;2.60;;;-0.30;99.90;;;;;;4915306;29;20441;-70
2023/01/21 08:44:29;;;;;;;0.90;0.60;;;-0.30;99.90;;;;;;4915687;29;20452;-71
2023/01/21 08:46:59;;;;;;;0.60;0.47;;;-0.20;99.90;;;;;;4912611;29;20453;-72
2023/01/21 08:49:27;;;;;;;1.30;1.23;;;-0.20;99.90;;;;;;4914839;29;20934;-71
2023/01/21 08:51:55;;;;;;;1.17;1.17;;;-0.20;99.90;;;;;;4914825;29;20500;-72
2023/01/21 08:54:22;;;;;;;3.20;3.00;;;-0.10;99.90;;;;;;4915185;29;20460;-70
2023/01/21 08:56:50;;;;;;;2.43;2.10;;;-0.10;99.90;;;;;;4915144;29;20448;-70
2023/01/21 08:59:20;;;;;;;5.73;1.40;;;-0.10;99.90;;;;;;4912870;29;20480;-71
2023/01/21 09:01:48;;;;;;;1.53;0.50;;;-0.10;99.90;;;;;;4920385;29;20437;-70
2023/01/21 09:04:17;;;;;;;1.13;1.13;;;0.00;99.90;;;;;;4927194;29;20445;-71
2023/01/21 09:06:45;;;;;;;2.40;2.20;;;0.00;99.90;;;;;;4928738;29;20457;-71
2023/01/21 09:09:13;;;;;;;2.73;2.33;;;0.00;99.90;;;;;;4915757;29;20464;-71
2023/01/21 09:11:40;;;;;;;2.33;1.60;;;1.30;99.90;;;;;;4915152;29;20948;-71
2023/01/21 09:14:09;;;;;;;1.23;1.07;;;;;;;;;;4914515;29;20441;-71
2023/01/21 09:16:37;;;;;;;0.60;0.23;;;0.10;99.90;;;;;;4912995;29;20457;-72
2023/01/21 09:19:05;;;;;;;0.87;0.67;;;0.20;99.90;;;;;;4913378;29;20540;-72
2023/01/21 09:21:34;;;;;;;5.80;2.97;;;0.30;99.90;;;;;;4914627;29;20520;-68
2023/01/21 09:24:02;;;;;;;3.43;3.23;;;0.20;99.90;;;;;;4915913;29;20523;-69
2023/01/21 09:26:30;;;;;;;2.80;0.80;;;0.30;99.90;;;;;;4918563;29;20449;-70
2023/01/21 09:28:59;;;;;;;1.63;1.03;;;0.30;99.90;;;;;;4916322;29;20994;-69
2023/01/21 09:31:29;;;;;;;16.77;1.67;;;0.20;99.90;;;;;;4918868;29;20480;-73
2023/01/21 09:33:59;;;;;;;2.40;0.60;;;0.20;99.90;;;;;;4914656;29;20495;-71
2023/01/21 09:36:28;;;;;;;2.93;2.63;;;0.20;99.90;;;;;;4918308;29;20825;-74
2023/01/21 09:38:58;;;;;;;2.57;2.47;;;0.20;99.90;;;;;;4918514;29;20530;-70
2023/01/21 09:41:28;;;;;;;2.90;1.30;;;0.20;99.90;;;;;;4917481;29;21088;-73
2023/01/21 09:44:03;;;;;;;5.90;2.00;;;0.30;99.90;;;;;;4918314;29;20441;-72
2023/01/21 09:46:36;;;;;;;0.87;0.70;;;0.30;99.90;;;;;;4917931;29;20852;-71
2023/01/21 09:49:09;;;;;;;3.40;2.57;;;0.40;99.90;;;;;;4917529;29;20496;-71
2023/01/21 09:51:45;;;;;;;1.33;1.03;;;0.40;99.90;;;;;;4914476;29;20503;-72
2023/01/21 09:54:21;;;;;;;0.50;0.40;;;0.50;99.90;;;;;;4917678;29;20940;-72
2023/01/21 09:57:08;;;;;;;0.50;0.20;;;0.60;99.90;;;;;;4917171;29;20447;-72
2023/01/21 09:59:47;;;;;;;5.43;3.67;;;0.60;99.90;;;;;;4918718;29;20479;-71
2023/01/21 10:02:26;;;;;;;1.80;0.97;;;0.60;99.90;;;;;;4903973;29;20839;-72
2023/01/21 10:05:33;;;;;;;2.53;1.40;;;0.70;99.90;;;;;;4903356;29;20865;-72
2023/01/21 10:08:10;;;;;;;2.30;1.60;;;0.70;99.90;;;;;;4916099;29;20480;-71
2023/01/21 10:10:46;;;;;;;0.63;0.43;;;0.80;99.90;;;;;;4916278;29;20484;-72
2023/01/21 10:13:31;;;;;;;3.40;1.60;;;0.80;99.90;;;;;;4918412;29;20504;-72
2023/01/21 10:16:08;;;;;;;0.50;0.10;;;0.80;99.90;;;;;;4918381;29;20447;-70
2023/01/21 10:18:39;;;;;;;0.97;0.87;;;1.00;99.90;;;;;;4916354;29;20473;-71
2023/01/21 10:21:15;;;;;;;0.50;0.20;;;1.00;99.90;;;;;;4904656;29;20509;-70
2023/01/21 10:23:45;;;;;;;2.47;1.30;;;1.10;99.90;;;;;;4909302;29;20452;-72
2023/01/21 10:26:15;;;;;;;1.60;1.50;;;1.10;99.90;;;;;;4910287;29;20485;-71
2023/01/21 10:28:47;;;;;;;0.57;0.30;;;0.90;99.90;;;;;;4917862;29;20469;-72
2023/01/21 10:31:21;;;;;;;7.23;4.13;;;1.00;99.90;;;;;;4917758;29;20492;-72
2023/01/21 10:33:49;;;;;;;2.90;2.77;;;0.90;99.90;;;;;;4918600;29;20475;-74
2023/01/21 10:36:32;;;;;;;6.77;4.47;;;1.10;99.90;;;;;;4917495;29;20994;-70
2023/01/21 10:39:09;;;;;;;1.40;1.30;;;1.10;99.90;;;;;;4915178;29;20475;-71
2023/01/21 10:42:04;;;;;;;3.60;1.50;;;1.10;99.90;;;;;;4917213;29;20440;-71
2023/01/21 10:44:40;;;;;;;1.23;0.50;;;1.00;99.90;;;;;;4917720;29;20475;-71
2023/01/21 10:47:18;;;;;;;1.03;0.50;;;1.00;99.90;;;;;;4917835;29;20464;-72
2023/01/21 10:49:55;;;;;;;0.57;0.50;;;1.00;99.90;;;;;;4919167;29;20452;-72
2023/01/21 10:52:30;;;;;;;12.03;1.53;;;1.00;99.90;;;;;;4919723;29;20868;-69
2023/01/21 10:55:05;;;;;;;6.10;4.20;;;1.00;99.90;;;;;;4909945;29;20460;-70
2023/01/21 10:57:48;;;;;;;10.13;2.67;;;1.00;99.90;;;;;;4915874;29;20467;-70
2023/01/21 11:00:21;;;;;;;1.20;0.90;;;1.00;99.90;;;;;;4914955;29;20528;-70
2023/01/21 11:02:54;;;;;;;0.83;0.73;;;1.00;99.90;;;;;;4922305;29;20445;-70
2023/01/21 11:05:24;;;;;;;4.63;2.00;;;1.00;99.90;;;;;;4918517;29;20441;-72
2023/01/21 11:07:52;;;;;;;3.83;3.23;;;1.00;99.90;;;;;;4917056;29;20471;-71
2023/01/21 11:10:23;;;;;;;2.47;1.80;;;0.90;99.90;;;;;;4915364;29;20465;-73
2023/01/21 11:12:53;;;;;;;0.83;0.30;;;0.90;99.90;;;;;;4916273;29;20441;-71
2023/01/21 11:15:23;;;;;;;3.63;1.87;;;0.80;99.90;;;;;;4918261;29;20456;-69
2023/01/21 11:17:55;;;;;;;0.60;0.40;;;0.80;99.90;;;;;;4916652;29;20516;-69
2023/01/21 11:20:33;;;;;;;3.33;2.10;;;0.80;99.90;;;;;;4912169;29;20452;-70
2023/01/21 11:23:03;;;;;;;1.77;1.03;;;0.80;99.90;;;;;;4910956;29;20488;-70
2023/01/21 11:25:37;;;;;;;16.33;3.70;;;2.90;99.90;;;;;;4915741;29;20455;-69
2023/01/21 11:28:22;;;;;;;5.33;2.67;;;0.70;99.90;;;;;;4911772;29;20471;-73
2023/01/21 11:31:00;;;;;;;5.13;4.37;;;0.70;99.90;;;;;;4899282;29;20607;-70
2023/01/21 11:33:28;;;;;;;0.80;0.73;;;0.70;99.90;;;;;;4899072;29;20532;-70
2023/01/21 11:35:57;;;;;;;14.50;4.23;;;0.70;99.90;;;;;;4898566;29;20861;-70
2023/01/21 11:38:33;;;;;;;2.20;2.10;;;0.80;99.90;;;;;;4918865;23;20476;-72
2023/01/21 11:41:06;;;;;;;1.73;1.63;;;0.90;99.90;;;;;;4958643;28;20442;-73
2023/01/21 11:43:44;;;;;;;0.60;0.43;;;0.90;99.90;;;;;;4957581;28;20497;-73
2023/01/21 11:46:30;;;;;;;2.40;2.00;;;0.90;99.90;;;;;;4963519;28;20438;-73
2023/01/21 11:49:20;;;;;;;6.63;4.50;;;0.90;99.90;;;;;;4959985;29;21021;-72
2023/01/21 11:51:48;;;;;;;2.73;2.53;;;0.90;99.90;;;;;;4943239;29;20486;-73
2023/01/21 11:54:18;;;;;;;2.20;2.00;;;0.90;99.90;;;;;;4940541;29;20466;-73
2023/01/21 11:56:55;;;;;;;1.10;0.97;;;0.90;99.90;;;;;;4947051;29;20463;-73
2023/01/21 11:59:29;;;;;;;0.90;0.40;;;1.00;99.90;;;;;;4942145;29;20509;-72
2023/01/21 12:02:07;;;;;;;3.07;2.37;;;1.00;99.90;;;;;;4941424;29;20451;-73
2023/01/21 12:04:36;;;;;;;4.20;0.83;;;1.10;99.90;;;;;;4951669;28;20439;-73
2023/01/21 12:07:05;;;;;;;1.73;1.07;;;1.10;99.90;;;;;;4957290;28;20450;-73
2023/01/21 12:09:33;;;;;;;5.60;5.10;;;1.10;99.90;;;;;;4942656;28;20563;-73
2023/01/21 12:12:19;;;;;;;2.20;1.20;;;1.10;99.90;;;;;;4938334;29;20480;-72
2023/01/21 12:14:53;;;;;;;1.43;1.33;;;1.00;99.90;;;;;;4948746;29;20470;-71
2023/01/21 12:17:38;;;;;;;5.53;2.30;;;1.20;99.90;;;;;;4940996;28;20459;-72
2023/01/21 12:20:20;;;;;;;0.80;0.73;;;1.20;99.90;;;;;;4934567;29;20484;-72
2023/01/21 12:22:59;;;;;;;0.60;0.40;;;1.20;99.90;;;;;;4938038;29;20432;-73
2023/01/21 12:25:40;;;;;;;0.60;0.33;;;1.20;99.90;;;;;;4936866;29;20458;-72
2023/01/21 12:28:23;;;;;;;0.60;0.50;;;1.30;99.90;;;;;;4936848;29;20947;-72
2023/01/21 12:31:03;;;;;;;5.60;2.10;;;1.30;99.90;;;;;;4933263;29;20460;-73
2023/01/21 12:33:46;;;;;;;0.70;0.60;;;1.30;99.90;;;;;;4937414;29;20464;-72
2023/01/21 12:36:20;;;;;;;1.67;0.93;;;1.40;99.90;;;;;;4936760;29;20440;-73
2023/01/21 12:39:05;;;;;;;1.27;1.17;;;1.40;99.90;;;;;;4937074;29;20522;-73
2023/01/21 12:41:34;;;;;;;1.30;1.20;;;1.40;99.90;;;;;;4938649;29;20462;-72
2023/01/21 12:44:17;;;;;;;3.00;1.70;;;1.40;99.90;;;;;;4944679;29;20452;-71
2023/01/21 12:46:49;;;;;;;0.60;0.40;;;1.40;99.90;;;;;;4946165;29;20448;-72
2023/01/21 12:49:23;;;;;;;0.97;0.97;;;1.40;99.90;;;;;;4946855;29;20504;-72
2023/01/21 12:51:57;;;;;;;1.53;1.43;;;1.50;99.90;;;;;;4944880;29;20488;-73
2023/01/21 12:54:33;;;;;;;1.37;1.27;;;1.50;99.90;;;;;;4947003;29;20467;-73
2023/01/21 12:57:09;;;;;;;0.50;0.10;;;1.50;99.90;;;;;;4941933;29;20938;-73
2023/01/21 12:59:42;;;;;;;1.20;0.70;;;1.50;99.90;;;;;;4945632;29;20475;-73
2023/01/21 13:02:22;;;;;;;0.50;0.20;;;1.60;99.90;;;;;;4941501;29;20446;-73
2023/01/21 13:04:56;;;;;;;0.90;0.37;;;1.70;99.90;;;;;;4939917;29;20488;-73
2023/01/21 13:07:40;;;;;;;1.83;1.30;;;1.70;99.90;;;;;;4938661;29;20965;-73
2023/01/21 13:10:15;;;;;;;0.50;0.10;;;1.70;99.90;;;;;;4946179;29;20515;-73
2023/01/21 13:12:49;;;;;;;0.60;0.40;;;1.70;99.90;;;;;;4938344;29;20523;-73
2023/01/21 13:15:19;;;;;;;0.50;0.10;;;1.70;99.90;;;;;;4941923;29;20456;-72
2023/01/21 13:17:53;;;;;;;4.00;1.67;;;1.70;99.90;;;;;;4940335;29;20931;-73
2023/01/21 13:20:22;;;;;;;2.17;2.00;;;1.70;99.90;;;;;;4938840;29;20478;-74
2023/01/21 13:23:03;;;;;;;3.87;1.00;;;1.80;99.90;;;;;;4938512;29;20449;-74
2023/01/21 13:25:37;;;;;;;1.23;1.07;;;1.90;99.90;;;;;;4944732;29;20508;-74
2023/01/21 13:28:14;;;;;;;2.20;1.33;;;-0.30;99.90;;;;;;4942370;29;20447;-73
2023/01/21 13:30:49;;;;;;;0.90;0.50;;;2.00;99.90;;;;;;4936759;29;20835;-73
2023/01/21 13:33:28;;;;;;;0.70;0.50;;;1.90;99.90;;;;;;4944543;29;20550;-75
2023/01/21 13:36:05;;;;;;;1.47;1.37;;;2.00;99.90;;;;;;4942661;29;20455;-74
2023/01/21 13:38:38;;;;;;;3.70;0.93;;;2.10;99.90;;;;;;4936069;29;20582;-74
2023/01/21 13:41:21;;;;;;;1.40;1.13;;;2.10;99.90;;;;;;4935015;29;20462;-74
2023/01/21 13:44:03;;;;;;;2.43;0.60;;;2.10;99.90;;;;;;4936696;29;20443;-75
2023/01/21 13:46:45;;;;;;;1.27;0.87;;;2.10;99.90;;;;;;4936932;29;20461;-76
2023/01/21 13:49:54;;;;;;;0.63;0.27;;;2.30;99.90;;;;;;4943590;29;20519;-72
2023/01/21 13:52:28;;;;;;;2.00;1.90;;;2.30;99.90;;;;;;4938897;29;20558;-74
2023/01/21 13:55:11;;;;;;;0.50;0.10;;;2.30;99.90;;;;;;4936316;29;20455;-74
2023/01/21 13:58:00;;;;;;;1.63;0.80;;;2.30;99.90;;;;;;4946419;29;20447;-74
2023/01/21 14:00:33;;;;;;;2.27;0.93;;;2.30;99.90;;;;;;4934363;29;20551;-73
2023/01/21 14:03:12;;;;;;;5.20;3.50;;;2.30;99.90;;;;;;4932276;29;20440;-74
2023/01/21 14:05:45;;;;;;;0.50;0.30;;;2.30;99.90;;;;;;4936786;29;20452;-74
2023/01/21 14:08:20;;;;;;;0.60;0.53;;;2.30;97.40;;;;;;4937237;29;20958;-75
2023/01/21 14:10:52;;;;;;;0.97;0.77;;;2.30;98.20;;;;;;4938323;29;20451;-76
2023/01/21 14:13:59;;;;;;;0.70;0.63;;;2.20;97.60;;;;;;4940018;29;20862;-74
2023/01/21 14:16:46;;;;;;;2.10;1.33;;;2.20;99.90;;;;;;4939444;29;20455;-74
2023/01/21 14:19:39;;;;;;;1.10;0.93;;;2.10;99.40;;;;;;4940366;29;20468;-74
2023/01/21 14:22:28;;;;;;;2.10;0.77;;;2.10;99.90;;;;;;4939871;29;20451;-74
2023/01/21 14:25:17;;;;;;;0.50;0.10;;;1.90;99.30;;;;;;4939772;29;20466;-75
2023/01/21 14:27:54;;;;;;;2.10;2.00;;;1.90;99.90;;;;;;4938316;29;20462;-73
2023/01/21 14:30:28;;;;;;;2.03;1.80;;;-0.40;99.90;;;;;;4939984;29;21001;-74
2023/01/21 14:33:00;;;;;;;1.60;1.10;;;1.90;99.90;;;;;;4939199;29;20496;-74
2023/01/21 14:35:33;;;;;;;0.50;0.10;;;1.90;99.90;;;;;;4937537;29;20447;-74
2023/01/21 14:38:12;;;;;;;2.23;1.70;;;1.90;99.90;;;;;;4921865;29;20447;-74
2023/01/21 14:40:47;;;;;;;1.07;1.00;;;1.90;99.90;;;;;;4922110;29;20444;-73
2023/01/21 14:43:39;;;;;;;2.03;1.27;;;1.90;99.90;;;;;;4927172;29;20448;-74
2023/01/21 14:49:06;;;;;;;0.70;0.40;;;1.90;99.90;;;;;;5061147;28;20902;-75
2023/01/21 14:51:37;;;;;;;0.90;0.40;;;1.90;99.90;;;;;;5063275;28;20434;-74
2023/01/21 14:54:11;;;;;;;0.90;0.47;;;1.90;99.90;;;;;;5063859;28;20419;-74
2023/01/21 14:56:39;;;;;;;0.60;0.30;;;1.90;99.90;;;;;;5062690;28;20454;-72
2023/01/21 14:59:26;;;;;;;9.90;1.40;;;1.80;99.90;;;;;;5061425;28;20468;-74
2023/01/21 15:02:00;;;;;;;1.30;1.30;;;1.80;99.90;;;;;;5044043;28;20448;-75
2023/01/21 15:04:31;;;;;;;1.00;0.83;;;1.80;99.90;;;;;;5032631;28;20454;-74
2023/01/21 15:07:01;;;;;;;0.60;0.40;;;1.80;99.90;;;;;;5032904;28;20425;-75
2023/01/21 15:09:31;;;;;;;1.70;0.60;;;1.80;99.90;;;;;;5044537;28;20471;-75
2023/01/21 15:12:03;;;;;;;0.50;0.30;;;1.80;99.90;;;;;;5031781;28;20787;-75
2023/01/21 15:14:34;;;;;;;0.60;0.40;;;1.80;99.90;;;;;;5031357;28;20452;-75
2023/01/21 15:17:02;;;;;;;3.43;1.90;;;1.90;99.90;;;;;;5032777;28;20444;-75
2023/01/21 15:19:33;;;;;;;0.70;0.53;;;1.90;99.90;;;;;;5032111;28;20862;-75
2023/01/21 15:22:18;;;;;;;0.83;0.83;;;1.90;99.90;;;;;;5033034;28;20460;-75
2023/01/21 15:25:20;;;;;;;0.60;0.40;;;1.90;99.90;;;;;;5031922;28;20538;-75
2023/01/21 15:28:37;;;;;;;1.53;0.70;;;1.90;99.90;;;;;;4972038;28;20569;-74
2023/01/21 15:31:07;;;;;;;2.00;0.30;;;1.90;99.90;;;;;;5040116;28;20448;-74
2023/01/21 15:33:43;;;;;;;0.50;0.10;;;1.90;99.90;;;;;;5036200;28;20449;-75
2023/01/21 15:36:20;;;;;;;0.50;0.10;;;1.80;99.90;;;;;;5039803;28;20439;-74
2023/01/21 15:38:49;;;;;;;0.90;0.60;;;1.80;99.90;;;;;;5043839;28;20461;-74
2023/01/21 15:41:27;;;;;;;0.50;0.20;;;1.80;99.90;;;;;;5062846;28;20782;-74
2023/01/21 15:44:06;;;;;;;2.43;1.27;;;1.80;99.90;;;;;;5063532;28;21107;-74
2023/01/21 15:46:43;;;;;;;18.83;4.37;;;1.80;99.90;;;;;;5061555;28;20760;-75
2023/01/21 15:49:34;;;;;;;2.83;1.30;;;1.80;99.90;;;;;;5059604;28;20478;-72
2023/01/21 15:52:19;;;;;;;0.63;0.40;;;1.80;99.90;;;;;;5048761;28;20457;-72
2023/01/21 15:54:57;;;;;;;0.50;0.20;;;1.80;99.90;;;;;;5046069;28;20446;-74
2023/01/21 15:57:42;;;;;;;0.93;0.30;;;2.30;99.90;;;;;;5049456;28;20430;-74
2023/01/21 16:00:27;;;;;;;1.43;1.33;;;1.90;99.90;;;;;;5028934;28;20958;-74
2023/01/21 16:02:58;;;;;;;2.10;1.50;;;3.90;99.90;;;;;;5027153;28;20443;-73
2023/01/21 16:05:38;;;;;;;0.50;0.30;;;1.80;99.90;;;;;;5021786;28;20197;-74
2023/01/21 16:08:17;;;;;;;1.13;0.47;;;1.80;99.90;;;;;;5028997;28;20475;-74
2023/01/21 16:10:59;;;;;;;0.70;0.50;;;1.80;99.90;;;;;;5025356;28;20443;-73
2023/01/21 16:13:39;;;;;;;0.70;0.70;;;1.80;99.90;;;;;;5026859;28;20454;-73
2023/01/21 16:16:13;;;;;;;2.00;1.90;;;1.80;99.90;;;;;;5027603;28;20444;-73
2023/01/21 16:18:51;;;;;;;1.73;1.43;;;1.70;99.90;;;;;;5028476;28;20518;-73
2023/01/21 16:21:23;;;;;;;0.50;0.10;;;1.70;99.90;;;;;;5020331;28;20446;-73
2023/01/21 16:23:57;;;;;;;0.50;0.10;;;1.70;99.90;;;;;;5029887;28;20451;-73
2023/01/21 16:26:27;;;;;;;0.50;0.13;;;1.80;99.90;;;;;;5033684;28;20440;-73
2023/01/21 16:28:55;;;;;;;1.47;1.20;;;1.80;99.90;;;;;;5033017;28;20482;-74
2023/01/21 16:31:23;;;;;;;1.23;0.80;;;1.80;99.90;;;;;;5029905;28;20455;-74
2023/01/21 16:33:52;;;;;;;1.73;1.30;;;1.70;99.90;;;;;;5033010;28;20519;-74
2023/01/21 16:36:20;;;;;;;0.50;0.20;;;1.70;99.90;;;;;;5037942;28;20477;-74
2023/01/21 16:38:48;;;;;;;0.50;0.10;;;1.70;99.90;;;;;;5030776;28;20465;-73
2023/01/21 16:41:23;;;;;;;0.50;0.20;;;1.70;99.90;;;;;;5028018;28;20445;-74
2023/01/21 16:43:54;;;;;;;9.77;9.03;;;1.80;99.90;;;;;;5020402;28;20448;-75
2023/01/21 16:46:24;;;;;;;4.43;0.97;;;1.80;99.90;;;;;;5019274;28;20432;-75
2023/01/21 16:48:57;;;;;;;0.50;0.10;;;1.80;99.90;;;;;;5018662;28;20501;-74
2023/01/21 16:51:28;;;;;;;0.50;0.10;;;1.80;99.90;;;;;;5031206;28;20735;-73
2023/01/21 16:54:23;;;;;;;0.70;0.57;;;1.80;99.90;;;;;;5033652;28;20451;-74
2023/01/21 16:56:55;;;;;;;0.50;0.10;;;1.80;99.90;;;;;;5035336;28;20521;-74
2023/01/21 16:59:26;;;;;;;0.50;0.10;;;1.80;99.90;;;;;;5033533;28;20561;-73
2023/01/21 17:01:55;;;;;;;0.50;0.10;;;1.80;99.90;;;;;;5028319;28;20809;-74
2023/01/21 17:04:23;;;;;;;1.57;1.47;;;1.80;99.90;;;;;;5035152;28;20967;-73
2023/01/21 17:06:52;;;;;;;0.50;0.10;;;1.80;99.90;;;;;;5035088;28;20870;-74
2023/01/21 17:09:26;;;;;;;0.70;0.57;;;1.90;99.90;;;;;;5035471;28;20492;-74
2023/01/21 17:11:58;;;;;;;0.50;0.10;;;1.90;99.90;;;;;;5035347;28;20444;-73
2023/01/21 17:14:29;;;;;;;0.50;0.10;;;1.80;99.90;;;;;;5036259;28;20448;-74
2023/01/21 17:17:00;;;;;;;0.50;0.10;;;1.80;99.90;;;;;;5035756;28;21046;-74
2023/01/21 17:19:32;;;;;;;0.50;0.10;;;1.80;99.90;;;;;;5022236;28;20474;-74
2023/01/21 17:22:03;;;;;;;0.50;0.20;;;1.80;99.90;;;;;;5018618;28;20965;-74
2023/01/21 17:24:34;;;;;;;0.70;0.70;;;1.80;99.90;;;;;;5027486;28;20457;-74
2023/01/21 17:27:10;;;;;;;0.50;0.10;;;1.80;99.90;;;;;;5036032;28;20535;-74
2023/01/21 17:29:39;;;;;;;7.50;2.77;;;1.80;99.90;;;;;;5036554;28;20491;-75